sensor_id;sensor_type;location;lat;lon;timestamp;temperature;humidity
10911;DHT22;5508;49.150;11.030;2023-02-28T00:02:21;-5.40;96.90
10911;DHT22;5508;49.150;11.030;2023-02-28T00:05:23;-5.40;97.30
10911;DHT22;5508;49.150;11.030;2023-02-28T00:08:24;-5.40;97.50
10911;DHT22;5508;49.150;11.030;2023-02-28T00:11:25;-5.40;97.60
10911;DHT22;5508;49.150;11.030;2023-02-28T00:14:25;-5.40;98.30
10911;DHT22;5508;49.150;11.030;2023-02-28T00:17:26;-5.40;98.50
10911;DHT22;5508;49.150;11.030;2023-02-28T00:20:27;-5.30;98.90
10911;DHT22;5508;49.150;11.030;2023-02-28T00:23:28;-5.20;99.60
10911;DHT22;5508;49.150;11.030;2023-02-28T00:26:29;-5.10;99.30
10911;DHT22;5508;49.150;11.030;2023-02-28T00:29:30;-5.00;98.70
10911;DHT22;5508;49.150;11.030;2023-02-28T00:32:30;-5.00;98.40
10911;DHT22;5508;49.150;11.030;2023-02-28T00:35:31;-4.90;97.80
10911;DHT22;5508;49.150;11.030;2023-02-28T00:38:32;-4.90;97.40
10911;DHT22;5508;49.150;11.030;2023-02-28T00:41:32;-4.90;97.40
10911;DHT22;5508;49.150;11.030;2023-02-28T00:44:33;-4.90;97.20
10911;DHT22;5508;49.150;11.030;2023-02-28T00:47:34;-4.90;96.90
10911;DHT22;5508;49.150;11.030;2023-02-28T00:50:34;-5.00;97.20
10911;DHT22;5508;49.150;11.030;2023-02-28T00:53:35;-5.00;97.70
10911;DHT22;5508;49.150;11.030;2023-02-28T00:56:35;-5.00;97.90
10911;DHT22;5508;49.150;11.030;2023-02-28T00:59:36;-5.00;98.50
10911;DHT22;5508;49.150;11.030;2023-02-28T01:02:37;-5.00;97.70
10911;DHT22;5508;49.150;11.030;2023-02-28T01:05:37;-5.00;97.70
10911;DHT22;5508;49.150;11.030;2023-02-28T01:08:38;-5.00;97.70
10911;DHT22;5508;49.150;11.030;2023-02-28T01:11:38;-5.00;98.50
10911;DHT22;5508;49.150;11.030;2023-02-28T01:14:42;-5.00;97.70
10911;DHT22;5508;49.150;11.030;2023-02-28T01:17:42;-5.00;97.90
10911;DHT22;5508;49.150;11.030;2023-02-28T01:20:43;-5.00;98.50
10911;DHT22;5508;49.150;11.030;2023-02-28T01:23:45;-5.10;98.90
10911;DHT22;5508;49.150;11.030;2023-02-28T01:26:46;-5.00;98.30
10911;DHT22;5508;49.150;11.030;2023-02-28T01:29:46;-5.10;98.40
10911;DHT22;5508;49.150;11.030;2023-02-28T01:32:47;-5.10;98.50
10911;DHT22;5508;49.150;11.030;2023-02-28T01:35:48;-5.10;98.80
10911;DHT22;5508;49.150;11.030;2023-02-28T01:38:49;-5.10;99.50
10911;DHT22;5508;49.150;11.030;2023-02-28T01:41:49;-5.20;98.60
10911;DHT22;5508;49.150;11.030;2023-02-28T01:48:00;-5.20;99.50
10911;DHT22;5508;49.150;11.030;2023-02-28T01:51:06;-5.20;99.60
10911;DHT22;5508;49.150;11.030;2023-02-28T01:54:12;-5.20;99.80
10911;DHT22;5508;49.150;11.030;2023-02-28T01:57:17;-5.30;99.90
10911;DHT22;5508;49.150;11.030;2023-02-28T02:00:21;-5.30;99.90
10911;DHT22;5508;49.150;11.030;2023-02-28T02:03:23;-5.30;99.90
10911;DHT22;5508;49.150;11.030;2023-02-28T02:06:45;-5.40;99.90
10911;DHT22;5508;49.150;11.030;2023-02-28T02:09:47;-5.50;99.90
10911;DHT22;5508;49.150;11.030;2023-02-28T02:33:23;-5.60;99.90
10911;DHT22;5508;49.150;11.030;2023-02-28T02:36:35;-5.60;99.90
10911;DHT22;5508;49.150;11.030;2023-02-28T02:39:48;-5.60;99.90
10911;DHT22;5508;49.150;11.030;2023-02-28T02:43:15;-5.70;99.90
10911;DHT22;5508;49.150;11.030;2023-02-28T02:46:26;-5.90;99.90
10911;DHT22;5508;49.150;11.030;2023-02-28T02:49:32;-6.10;99.90
10911;DHT22;5508;49.150;11.030;2023-02-28T02:52:38;-6.30;99.90
10911;DHT22;5508;49.150;11.030;2023-02-28T02:55:44;-6.40;99.90
10911;DHT22;5508;49.150;11.030;2023-02-28T02:58:47;-6.50;99.90
10911;DHT22;5508;49.150;11.030;2023-02-28T03:01:52;-6.50;99.90
10911;DHT22;5508;49.150;11.030;2023-02-28T03:04:58;-6.70;99.90
10911;DHT22;5508;49.150;11.030;2023-02-28T03:08:04;-6.70;99.90
10911;DHT22;5508;49.150;11.030;2023-02-28T03:11:10;-6.80;99.90
10911;DHT22;5508;49.150;11.030;2023-02-28T03:14:40;-6.90;99.90
10911;DHT22;5508;49.150;11.030;2023-02-28T03:18:00;-7.00;99.90
10911;DHT22;5508;49.150;11.030;2023-02-28T03:24:19;-7.10;99.90
10911;DHT22;5508;49.150;11.030;2023-02-28T03:27:33;-7.10;99.90
10911;DHT22;5508;49.150;11.030;2023-02-28T03:30:44;-7.20;99.90
10911;DHT22;5508;49.150;11.030;2023-02-28T03:34:08;-7.20;99.90
10911;DHT22;5508;49.150;11.030;2023-02-28T03:37:19;-7.30;99.90
10911;DHT22;5508;49.150;11.030;2023-02-28T03:40:25;-7.40;99.90
10911;DHT22;5508;49.150;11.030;2023-02-28T03:43:33;-7.40;99.90
10911;DHT22;5508;49.150;11.030;2023-02-28T03:46:38;-7.50;99.90
10911;DHT22;5508;49.150;11.030;2023-02-28T03:49:50;-7.40;99.90
10911;DHT22;5508;49.150;11.030;2023-02-28T03:53:11;-7.40;99.90
10911;DHT22;5508;49.150;11.030;2023-02-28T03:56:19;-7.50;99.90
10911;DHT22;5508;49.150;11.030;2023-02-28T03:59:43;-7.50;99.90
10911;DHT22;5508;49.150;11.030;2023-02-28T04:02:44;-7.50;99.90
10911;DHT22;5508;49.150;11.030;2023-02-28T04:05:54;-7.60;99.90
10911;DHT22;5508;49.150;11.030;2023-02-28T04:08:56;-7.50;99.90
10911;DHT22;5508;49.150;11.030;2023-02-28T04:11:56;-7.60;99.90
10911;DHT22;5508;49.150;11.030;2023-02-28T04:14:57;-7.60;99.90
10911;DHT22;5508;49.150;11.030;2023-02-28T04:17:57;-7.60;99.90
10911;DHT22;5508;49.150;11.030;2023-02-28T04:21:00;-7.60;99.90
10911;DHT22;5508;49.150;11.030;2023-02-28T04:24:00;-7.60;99.90
10911;DHT22;5508;49.150;11.030;2023-02-28T04:27:01;-7.60;99.90
10911;DHT22;5508;49.150;11.030;2023-02-28T04:30:02;-7.60;99.90
10911;DHT22;5508;49.150;11.030;2023-02-28T04:33:03;-7.60;99.90
10911;DHT22;5508;49.150;11.030;2023-02-28T04:36:06;-7.60;99.90
10911;DHT22;5508;49.150;11.030;2023-02-28T04:39:08;-7.60;99.90
10911;DHT22;5508;49.150;11.030;2023-02-28T04:42:10;-7.60;99.90
10911;DHT22;5508;49.150;11.030;2023-02-28T04:45:11;-7.60;99.90
10911;DHT22;5508;49.150;11.030;2023-02-28T04:48:12;-7.60;99.90
10911;DHT22;5508;49.150;11.030;2023-02-28T04:51:14;-7.70;99.90
10911;DHT22;5508;49.150;11.030;2023-02-28T04:54:15;-7.70;99.90
10911;DHT22;5508;49.150;11.030;2023-02-28T04:57:18;-7.70;99.90
10911;DHT22;5508;49.150;11.030;2023-02-28T05:00:19;-7.70;99.90
10911;DHT22;5508;49.150;11.030;2023-02-28T05:03:20;-7.70;99.90
10911;DHT22;5508;49.150;11.030;2023-02-28T05:06:24;-7.70;99.90
10911;DHT22;5508;49.150;11.030;2023-02-28T05:09:25;-7.70;99.90
10911;DHT22;5508;49.150;11.030;2023-02-28T05:12:25;-7.70;99.90
10911;DHT22;5508;49.150;11.030;2023-02-28T05:15:26;-7.70;99.90
10911;DHT22;5508;49.150;11.030;2023-02-28T05:18:26;-7.80;99.90
10911;DHT22;5508;49.150;11.030;2023-02-28T05:24:33;-7.60;99.90
10911;DHT22;5508;49.150;11.030;2023-02-28T05:27:34;-7.70;99.90
10911;DHT22;5508;49.150;11.030;2023-02-28T05:30:35;-7.70;99.90
10911;DHT22;5508;49.150;11.030;2023-02-28T05:33:35;-7.70;99.90
10911;DHT22;5508;49.150;11.030;2023-02-28T05:36:36;-7.70;99.90
10911;DHT22;5508;49.150;11.030;2023-02-28T05:39:37;-7.70;99.90
10911;DHT22;5508;49.150;11.030;2023-02-28T05:42:38;-7.80;99.90
10911;DHT22;5508;49.150;11.030;2023-02-28T05:45:39;-7.80;99.90
10911;DHT22;5508;49.150;11.030;2023-02-28T05:48:41;-7.80;99.90
10911;DHT22;5508;49.150;11.030;2023-02-28T05:51:42;-7.70;99.90
10911;DHT22;5508;49.150;11.030;2023-02-28T05:54:42;-7.80;99.90
10911;DHT22;5508;49.150;11.030;2023-02-28T05:57:43;-7.80;99.90
10911;DHT22;5508;49.150;11.030;2023-02-28T06:00:44;-7.80;99.90
10911;DHT22;5508;49.150;11.030;2023-02-28T06:03:45;-7.80;99.90
10911;DHT22;5508;49.150;11.030;2023-02-28T06:06:49;-7.80;99.90
10911;DHT22;5508;49.150;11.030;2023-02-28T06:09:50;-7.80;99.90
10911;DHT22;5508;49.150;11.030;2023-02-28T06:12:51;-7.70;99.90
10911;DHT22;5508;49.150;11.030;2023-02-28T06:15:51;-7.70;99.90
10911;DHT22;5508;49.150;11.030;2023-02-28T06:18:52;-7.60;99.90
10911;DHT22;5508;49.150;11.030;2023-02-28T06:21:54;-7.50;99.90
10911;DHT22;5508;49.150;11.030;2023-02-28T06:24:55;-7.40;99.90
10911;DHT22;5508;49.150;11.030;2023-02-28T06:27:57;-7.40;99.90
10911;DHT22;5508;49.150;11.030;2023-02-28T06:30:57;-7.20;99.90
10911;DHT22;5508;49.150;11.030;2023-02-28T06:33:58;-7.20;99.90
10911;DHT22;5508;49.150;11.030;2023-02-28T06:36:59;-7.10;99.90
10911;DHT22;5508;49.150;11.030;2023-02-28T06:40:02;-7.00;99.90
10911;DHT22;5508;49.150;11.030;2023-02-28T06:43:03;-6.90;99.90
10911;DHT22;5508;49.150;11.030;2023-02-28T06:46:07;-6.80;99.90
10911;DHT22;5508;49.150;11.030;2023-02-28T06:49:09;-6.70;99.90
10911;DHT22;5508;49.150;11.030;2023-02-28T06:52:10;-6.50;99.90
10911;DHT22;5508;49.150;11.030;2023-02-28T06:55:11;-6.40;99.90
10911;DHT22;5508;49.150;11.030;2023-02-28T06:58:11;-6.20;99.90
10911;DHT22;5508;49.150;11.030;2023-02-28T07:01:16;-6.00;99.90
10911;DHT22;5508;49.150;11.030;2023-02-28T07:04:16;-5.80;99.90
10911;DHT22;5508;49.150;11.030;2023-02-28T07:07:17;-5.50;99.90
10911;DHT22;5508;49.150;11.030;2023-02-28T07:10:18;-5.30;99.90
10911;DHT22;5508;49.150;11.030;2023-02-28T07:13:18;-5.10;99.90
10911;DHT22;5508;49.150;11.030;2023-02-28T07:16:19;-4.70;99.90
10911;DHT22;5508;49.150;11.030;2023-02-28T07:19:20;-4.50;99.90
10911;DHT22;5508;49.150;11.030;2023-02-28T07:22:20;-4.30;99.90
10911;DHT22;5508;49.150;11.030;2023-02-28T07:25:26;-4.10;99.90
10911;DHT22;5508;49.150;11.030;2023-02-28T07:28:27;-3.80;99.90
10911;DHT22;5508;49.150;11.030;2023-02-28T07:31:27;-3.70;98.70
10911;DHT22;5508;49.150;11.030;2023-02-28T07:34:28;-3.50;97.70
10911;DHT22;5508;49.150;11.030;2023-02-28T07:37:29;-3.40;96.20
10911;DHT22;5508;49.150;11.030;2023-02-28T07:40:31;-3.20;95.50
10911;DHT22;5508;49.150;11.030;2023-02-28T07:43:32;-3.00;92.50
10911;DHT22;5508;49.150;11.030;2023-02-28T07:46:33;-2.80;89.90
10911;DHT22;5508;49.150;11.030;2023-02-28T07:49:36;-2.70;90.00
10911;DHT22;5508;49.150;11.030;2023-02-28T07:52:37;-2.50;89.00
10911;DHT22;5508;49.150;11.030;2023-02-28T07:55:38;-2.40;85.30
10911;DHT22;5508;49.150;11.030;2023-02-28T07:58:39;-2.20;84.30
10911;DHT22;5508;49.150;11.030;2023-02-28T08:01:40;-2.20;83.40
10911;DHT22;5508;49.150;11.030;2023-02-28T08:04:40;-2.00;81.90
10911;DHT22;5508;49.150;11.030;2023-02-28T08:07:41;-1.90;81.20
10911;DHT22;5508;49.150;11.030;2023-02-28T08:10:42;-1.90;79.70
10911;DHT22;5508;49.150;11.030;2023-02-28T08:13:44;-1.90;78.40
10911;DHT22;5508;49.150;11.030;2023-02-28T08:16:45;-1.80;78.50
10911;DHT22;5508;49.150;11.030;2023-02-28T08:19:46;-1.60;75.60
10911;DHT22;5508;49.150;11.030;2023-02-28T08:22:47;-1.50;76.00
10911;DHT22;5508;49.150;11.030;2023-02-28T08:25:55;-1.30;74.00
10911;DHT22;5508;49.150;11.030;2023-02-28T08:28:56;-1.20;74.80
10911;DHT22;5508;49.150;11.030;2023-02-28T08:31:56;-1.00;74.50
10911;DHT22;5508;49.150;11.030;2023-02-28T08:34:57;-0.90;73.90
10911;DHT22;5508;49.150;11.030;2023-02-28T08:37:58;-0.80;73.90
10911;DHT22;5508;49.150;11.030;2023-02-28T08:41:00;-0.60;74.50
10911;DHT22;5508;49.150;11.030;2023-02-28T08:44:01;-0.60;71.60
10911;DHT22;5508;49.150;11.030;2023-02-28T08:47:02;-0.50;72.00
10911;DHT22;5508;49.150;11.030;2023-02-28T08:50:04;-0.40;70.80
10911;DHT22;5508;49.150;11.030;2023-02-28T08:53:04;-0.40;70.40
10911;DHT22;5508;49.150;11.030;2023-02-28T08:56:13;-0.20;70.60
10911;DHT22;5508;49.150;11.030;2023-02-28T08:59:14;-0.10;70.40
10911;DHT22;5508;49.150;11.030;2023-02-28T09:02:15;0.00;68.50
10911;DHT22;5508;49.150;11.030;2023-02-28T09:05:16;0.10;70.20
10911;DHT22;5508;49.150;11.030;2023-02-28T09:08:16;0.30;70.40
10911;DHT22;5508;49.150;11.030;2023-02-28T09:11:18;0.30;67.00
10911;DHT22;5508;49.150;11.030;2023-02-28T09:14:19;0.50;70.60
10911;DHT22;5508;49.150;11.030;2023-02-28T09:17:20;0.60;67.10
10911;DHT22;5508;49.150;11.030;2023-02-28T09:20:20;0.70;67.90
10911;DHT22;5508;49.150;11.030;2023-02-28T09:23:21;0.80;64.50
10911;DHT22;5508;49.150;11.030;2023-02-28T09:26:24;0.90;67.40
10911;DHT22;5508;49.150;11.030;2023-02-28T09:29:25;1.00;66.30
10911;DHT22;5508;49.150;11.030;2023-02-28T09:32:27;0.90;64.60
10911;DHT22;5508;49.150;11.030;2023-02-28T09:35:27;1.20;66.50
10911;DHT22;5508;49.150;11.030;2023-02-28T09:38:28;1.40;65.00
10911;DHT22;5508;49.150;11.030;2023-02-28T09:41:36;1.60;64.20
10911;DHT22;5508;49.150;11.030;2023-02-28T09:44:44;1.60;63.70
10911;DHT22;5508;49.150;11.030;2023-02-28T09:47:48;1.60;61.00
10911;DHT22;5508;49.150;11.030;2023-02-28T09:51:05;1.50;62.10
10911;DHT22;5508;49.150;11.030;2023-02-28T09:54:08;1.60;62.00
10911;DHT22;5508;49.150;11.030;2023-02-28T09:57:28;1.60;61.30
10911;DHT22;5508;49.150;11.030;2023-02-28T10:00:37;1.60;64.30
10911;DHT22;5508;49.150;11.030;2023-02-28T10:03:42;1.50;61.40
10911;DHT22;5508;49.150;11.030;2023-02-28T10:06:49;1.60;64.10
10911;DHT22;5508;49.150;11.030;2023-02-28T10:09:54;1.80;62.70
10911;DHT22;5508;49.150;11.030;2023-02-28T10:12:59;1.80;62.00
10911;DHT22;5508;49.150;11.030;2023-02-28T10:16:23;1.80;64.70
10911;DHT22;5508;49.150;11.030;2023-02-28T10:19:56;2.10;61.20
10911;DHT22;5508;49.150;11.030;2023-02-28T10:23:05;2.30;59.00
10911;DHT22;5508;49.150;11.030;2023-02-28T10:26:14;2.20;60.60
10911;DHT22;5508;49.150;11.030;2023-02-28T10:29:19;2.40;60.50
10911;DHT22;5508;49.150;11.030;2023-02-28T10:32:40;2.20;63.10
10911;DHT22;5508;49.150;11.030;2023-02-28T10:35:44;2.00;59.60
10911;DHT22;5508;49.150;11.030;2023-02-28T10:38:45;2.00;59.60
10911;DHT22;5508;49.150;11.030;2023-02-28T10:41:46;2.40;60.50
10911;DHT22;5508;49.150;11.030;2023-02-28T10:44:48;2.70;58.30
10911;DHT22;5508;49.150;11.030;2023-02-28T10:48:25;3.00;57.80
10911;DHT22;5508;49.150;11.030;2023-02-28T10:51:38;3.00;60.40
10911;DHT22;5508;49.150;11.030;2023-02-28T10:54:39;3.20;58.10
10911;DHT22;5508;49.150;11.030;2023-02-28T10:57:41;3.00;57.80
10911;DHT22;5508;49.150;11.030;2023-02-28T11:00:42;2.80;57.90
10911;DHT22;5508;49.150;11.030;2023-02-28T11:03:43;2.70;59.20
10911;DHT22;5508;49.150;11.030;2023-02-28T11:06:44;2.90;58.80
10911;DHT22;5508;49.150;11.030;2023-02-28T11:09:48;2.90;58.10
10911;DHT22;5508;49.150;11.030;2023-02-28T11:12:49;3.10;59.00
10911;DHT22;5508;49.150;11.030;2023-02-28T11:15:55;3.20;55.10
10911;DHT22;5508;49.150;11.030;2023-02-28T11:18:57;3.60;58.30
10911;DHT22;5508;49.150;11.030;2023-02-28T11:22:01;3.70;56.80
10911;DHT22;5508;49.150;11.030;2023-02-28T11:25:08;3.80;55.50
10911;DHT22;5508;49.150;11.030;2023-02-28T11:28:34;3.90;54.50
10911;DHT22;5508;49.150;11.030;2023-02-28T11:31:35;3.60;53.50
10911;DHT22;5508;49.150;11.030;2023-02-28T11:34:37;3.80;55.30
10911;DHT22;5508;49.150;11.030;2023-02-28T11:37:39;3.90;54.20
10911;DHT22;5508;49.150;11.030;2023-02-28T11:40:58;3.90;53.60
10911;DHT22;5508;49.150;11.030;2023-02-28T11:47:41;3.90;55.00
10911;DHT22;5508;49.150;11.030;2023-02-28T11:53:54;4.40;54.80
10911;DHT22;5508;49.150;11.030;2023-02-28T11:57:09;4.10;53.30
10911;DHT22;5508;49.150;11.030;2023-02-28T12:00:25;4.00;52.90
10911;DHT22;5508;49.150;11.030;2023-02-28T12:03:38;4.00;53.90
10911;DHT22;5508;49.150;11.030;2023-02-28T12:07:03;4.10;53.10
10911;DHT22;5508;49.150;11.030;2023-02-28T12:10:23;3.70;56.80
10911;DHT22;5508;49.150;11.030;2023-02-28T12:16:59;4.30;54.10
10911;DHT22;5508;49.150;11.030;2023-02-28T12:20:24;4.70;52.10
10911;DHT22;5508;49.150;11.030;2023-02-28T12:26:43;4.70;50.40
10911;DHT22;5508;49.150;11.030;2023-02-28T12:33:12;4.50;51.90
10911;DHT22;5508;49.150;11.030;2023-02-28T12:36:18;4.60;54.00
10911;DHT22;5508;49.150;11.030;2023-02-28T12:39:26;4.60;52.70
10911;DHT22;5508;49.150;11.030;2023-02-28T12:42:29;4.70;51.40
10911;DHT22;5508;49.150;11.030;2023-02-28T12:45:56;4.60;50.80
10911;DHT22;5508;49.150;11.030;2023-02-28T12:49:00;4.90;53.30
10911;DHT22;5508;49.150;11.030;2023-02-28T12:52:03;4.90;51.90
10911;DHT22;5508;49.150;11.030;2023-02-28T12:55:36;5.00;53.10
10911;DHT22;5508;49.150;11.030;2023-02-28T13:02:01;5.30;51.40
10911;DHT22;5508;49.150;11.030;2023-02-28T13:09:22;5.60;53.70
10911;DHT22;5508;49.150;11.030;2023-02-28T13:12:13;5.00;49.80
10911;DHT22;5508;49.150;11.030;2023-02-28T13:15:25;5.10;52.30
10911;DHT22;5508;49.150;11.030;2023-02-28T13:21:42;5.00;51.60
10911;DHT22;5508;49.150;11.030;2023-02-28T13:24:51;4.60;50.20
10911;DHT22;5508;49.150;11.030;2023-02-28T13:27:53;4.40;51.60
10911;DHT22;5508;49.150;11.030;2023-02-28T13:31:05;4.30;52.90
10911;DHT22;5508;49.150;11.030;2023-02-28T13:34:14;4.30;51.10
10911;DHT22;5508;49.150;11.030;2023-02-28T13:37:43;4.40;52.20
10911;DHT22;5508;49.150;11.030;2023-02-28T13:40:44;4.30;50.70
10911;DHT22;5508;49.150;11.030;2023-02-28T13:47:18;4.10;56.30
10911;DHT22;5508;49.150;11.030;2023-02-28T13:53:37;4.10;53.20
10911;DHT22;5508;49.150;11.030;2023-02-28T13:56:54;3.90;53.60
10911;DHT22;5508;49.150;11.030;2023-02-28T14:00:13;4.20;52.20
10911;DHT22;5508;49.150;11.030;2023-02-28T14:06:56;4.30;51.60
10911;DHT22;5508;49.150;11.030;2023-02-28T14:10:06;4.20;52.70
10911;DHT22;5508;49.150;11.030;2023-02-28T14:16:45;4.10;52.90
10911;DHT22;5508;49.150;11.030;2023-02-28T14:19:47;4.10;53.40
10911;DHT22;5508;49.150;11.030;2023-02-28T14:36:41;4.80;53.10
10911;DHT22;5508;49.150;11.030;2023-02-28T14:39:43;4.50;51.00
10911;DHT22;5508;49.150;11.030;2023-02-28T14:42:55;4.60;51.60
10911;DHT22;5508;49.150;11.030;2023-02-28T14:45:59;4.70;52.70
10911;DHT22;5508;49.150;11.030;2023-02-28T14:49:00;4.60;51.40
10911;DHT22;5508;49.150;11.030;2023-02-28T14:52:23;4.50;52.80
10911;DHT22;5508;49.150;11.030;2023-02-28T14:55:28;4.40;53.80
10911;DHT22;5508;49.150;11.030;2023-02-28T14:58:33;4.40;53.10
10911;DHT22;5508;49.150;11.030;2023-02-28T15:01:34;4.30;54.10
10911;DHT22;5508;49.150;11.030;2023-02-28T15:04:34;4.50;52.50
10911;DHT22;5508;49.150;11.030;2023-02-28T15:07:35;4.50;54.30
10911;DHT22;5508;49.150;11.030;2023-02-28T15:10:36;4.40;53.20
10911;DHT22;5508;49.150;11.030;2023-02-28T15:13:47;4.10;52.70
10911;DHT22;5508;49.150;11.030;2023-02-28T15:16:56;4.20;53.10
10911;DHT22;5508;49.150;11.030;2023-02-28T15:19:59;4.10;55.80
10911;DHT22;5508;49.150;11.030;2023-02-28T15:23:00;4.10;54.40
10911;DHT22;5508;49.150;11.030;2023-02-28T15:26:02;3.90;54.00
10911;DHT22;5508;49.150;11.030;2023-02-28T15:29:24;3.70;54.40
10911;DHT22;5508;49.150;11.030;2023-02-28T15:32:36;3.50;55.40
10911;DHT22;5508;49.150;11.030;2023-02-28T15:35:38;3.50;57.10
10911;DHT22;5508;49.150;11.030;2023-02-28T15:38:38;3.40;57.50
10911;DHT22;5508;49.150;11.030;2023-02-28T15:41:39;3.30;57.00
10911;DHT22;5508;49.150;11.030;2023-02-28T15:44:40;3.20;57.00
10911;DHT22;5508;49.150;11.030;2023-02-28T15:47:45;3.10;57.80
10911;DHT22;5508;49.150;11.030;2023-02-28T15:51:02;3.00;58.00
10911;DHT22;5508;49.150;11.030;2023-02-28T15:54:08;2.90;57.20
10911;DHT22;5508;49.150;11.030;2023-02-28T15:57:20;2.80;57.20
10911;DHT22;5508;49.150;11.030;2023-02-28T16:00:23;2.80;58.20
10911;DHT22;5508;49.150;11.030;2023-02-28T16:03:50;2.70;59.80
10911;DHT22;5508;49.150;11.030;2023-02-28T16:07:01;2.70;58.60
10911;DHT22;5508;49.150;11.030;2023-02-28T16:10:02;2.50;58.50
10911;DHT22;5508;49.150;11.030;2023-02-28T16:13:03;2.40;59.30
10911;DHT22;5508;49.150;11.030;2023-02-28T16:16:04;2.30;61.40
10911;DHT22;5508;49.150;11.030;2023-02-28T16:19:04;2.20;60.80
10911;DHT22;5508;49.150;11.030;2023-02-28T16:22:05;2.10;61.70
10911;DHT22;5508;49.150;11.030;2023-02-28T16:25:06;2.00;60.90
10911;DHT22;5508;49.150;11.030;2023-02-28T16:28:20;1.90;62.30
10911;DHT22;5508;49.150;11.030;2023-02-28T16:31:21;1.90;62.00
10911;DHT22;5508;49.150;11.030;2023-02-28T16:34:22;1.70;62.50
10911;DHT22;5508;49.150;11.030;2023-02-28T16:37:22;1.70;62.10
10911;DHT22;5508;49.150;11.030;2023-02-28T16:40:25;1.60;64.10
10911;DHT22;5508;49.150;11.030;2023-02-28T16:43:26;1.50;64.30
10911;DHT22;5508;49.150;11.030;2023-02-28T16:46:30;1.40;65.20
10911;DHT22;5508;49.150;11.030;2023-02-28T16:49:33;1.20;65.00
10911;DHT22;5508;49.150;11.030;2023-02-28T16:52:33;1.20;68.00
10911;DHT22;5508;49.150;11.030;2023-02-28T16:55:34;1.10;65.60
10911;DHT22;5508;49.150;11.030;2023-02-28T16:58:35;1.10;65.50
10911;DHT22;5508;49.150;11.030;2023-02-28T17:01:35;0.90;65.90
10911;DHT22;5508;49.150;11.030;2023-02-28T17:04:36;0.90;66.50
10911;DHT22;5508;49.150;11.030;2023-02-28T17:07:37;0.80;67.00
10911;DHT22;5508;49.150;11.030;2023-02-28T17:10:37;0.70;69.70
10911;DHT22;5508;49.150;11.030;2023-02-28T17:13:38;0.40;69.80
10911;DHT22;5508;49.150;11.030;2023-02-28T17:16:39;0.40;69.20
10911;DHT22;5508;49.150;11.030;2023-02-28T17:19:43;0.30;70.90
10911;DHT22;5508;49.150;11.030;2023-02-28T17:22:44;0.20;71.20
10911;DHT22;5508;49.150;11.030;2023-02-28T17:25:48;0.00;72.10
10911;DHT22;5508;49.150;11.030;2023-02-28T17:28:54;-0.20;72.90
10911;DHT22;5508;49.150;11.030;2023-02-28T17:31:58;-0.30;74.30
10911;DHT22;5508;49.150;11.030;2023-02-28T17:34:58;-0.50;74.50
10911;DHT22;5508;49.150;11.030;2023-02-28T17:37:59;-0.60;75.80
10911;DHT22;5508;49.150;11.030;2023-02-28T17:41:00;-0.80;75.90
10911;DHT22;5508;49.150;11.030;2023-02-28T17:44:00;-0.90;76.60
10911;DHT22;5508;49.150;11.030;2023-02-28T17:47:01;-1.10;77.80
10911;DHT22;5508;49.150;11.030;2023-02-28T17:50:02;-1.10;79.60
10911;DHT22;5508;49.150;11.030;2023-02-28T17:53:02;-1.20;79.80
10911;DHT22;5508;49.150;11.030;2023-02-28T17:56:03;-1.30;79.40
10911;DHT22;5508;49.150;11.030;2023-02-28T17:59:04;-1.50;80.40
10911;DHT22;5508;49.150;11.030;2023-02-28T18:02:05;-1.60;81.00
10911;DHT22;5508;49.150;11.030;2023-02-28T18:05:06;-1.80;81.90
10911;DHT22;5508;49.150;11.030;2023-02-28T18:08:15;-1.90;82.60
10911;DHT22;5508;49.150;11.030;2023-02-28T18:11:17;-1.90;82.60
10911;DHT22;5508;49.150;11.030;2023-02-28T18:14:19;-2.00;82.70
10911;DHT22;5508;49.150;11.030;2023-02-28T18:17:20;-1.90;83.50
10911;DHT22;5508;49.150;11.030;2023-02-28T18:20:21;-2.00;83.30
10911;DHT22;5508;49.150;11.030;2023-02-28T18:23:21;-2.00;83.50
10911;DHT22;5508;49.150;11.030;2023-02-28T18:26:22;-2.00;84.10
10911;DHT22;5508;49.150;11.030;2023-02-28T18:29:25;-2.00;84.20
10911;DHT22;5508;49.150;11.030;2023-02-28T18:32:26;-1.90;84.30
10911;DHT22;5508;49.150;11.030;2023-02-28T18:35:27;-2.00;84.60
10911;DHT22;5508;49.150;11.030;2023-02-28T18:38:34;-2.10;84.80
10911;DHT22;5508;49.150;11.030;2023-02-28T18:41:35;-2.10;85.30
10911;DHT22;5508;49.150;11.030;2023-02-28T18:44:36;-2.00;85.30
10911;DHT22;5508;49.150;11.030;2023-02-28T18:47:37;-2.10;86.00
10911;DHT22;5508;49.150;11.030;2023-02-28T18:50:38;-2.00;86.80
10911;DHT22;5508;49.150;11.030;2023-02-28T18:53:40;-2.10;85.90
10911;DHT22;5508;49.150;11.030;2023-02-28T18:56:41;-2.20;85.80
10911;DHT22;5508;49.150;11.030;2023-02-28T18:59:42;-2.30;85.90
10911;DHT22;5508;49.150;11.030;2023-02-28T19:02:43;-2.30;86.10
10911;DHT22;5508;49.150;11.030;2023-02-28T19:05:43;-2.40;85.80
10911;DHT22;5508;49.150;11.030;2023-02-28T19:08:44;-2.60;86.50
10911;DHT22;5508;49.150;11.030;2023-02-28T19:11:44;-2.60;88.10
10911;DHT22;5508;49.150;11.030;2023-02-28T19:14:45;-2.70;88.70
10911;DHT22;5508;49.150;11.030;2023-02-28T19:17:46;-2.70;89.10
10911;DHT22;5508;49.150;11.030;2023-02-28T19:20:47;-2.70;88.90
10911;DHT22;5508;49.150;11.030;2023-02-28T19:23:48;-2.70;89.20
10911;DHT22;5508;49.150;11.030;2023-02-28T19:26:48;-2.70;89.10
10911;DHT22;5508;49.150;11.030;2023-02-28T19:29:50;-2.90;89.30
10911;DHT22;5508;49.150;11.030;2023-02-28T19:32:51;-2.90;89.40
10911;DHT22;5508;49.150;11.030;2023-02-28T19:35:52;-2.90;90.00
10911;DHT22;5508;49.150;11.030;2023-02-28T19:38:52;-3.00;90.00
10911;DHT22;5508;49.150;11.030;2023-02-28T19:41:53;-3.20;89.80
10911;DHT22;5508;49.150;11.030;2023-02-28T19:44:53;-3.30;90.70
10911;DHT22;5508;49.150;11.030;2023-02-28T19:47:55;-3.50;90.80
10911;DHT22;5508;49.150;11.030;2023-02-28T19:50:57;-3.50;91.20
10911;DHT22;5508;49.150;11.030;2023-02-28T19:53:58;-3.50;91.50
10911;DHT22;5508;49.150;11.030;2023-02-28T19:56:59;-3.40;92.10
10911;DHT22;5508;49.150;11.030;2023-02-28T20:00:01;-3.40;91.80
10911;DHT22;5508;49.150;11.030;2023-02-28T20:03:02;-3.40;92.30
10911;DHT22;5508;49.150;11.030;2023-02-28T20:06:08;-3.40;92.60
10911;DHT22;5508;49.150;11.030;2023-02-28T20:09:09;-3.50;93.00
10911;DHT22;5508;49.150;11.030;2023-02-28T20:12:09;-3.50;93.80
10911;DHT22;5508;49.150;11.030;2023-02-28T20:15:10;-3.50;94.90
10911;DHT22;5508;49.150;11.030;2023-02-28T20:18:11;-3.50;94.40
10911;DHT22;5508;49.150;11.030;2023-02-28T20:21:12;-3.60;94.30
10911;DHT22;5508;49.150;11.030;2023-02-28T20:24:13;-3.70;95.10
10911;DHT22;5508;49.150;11.030;2023-02-28T20:27:14;-3.70;95.90
10911;DHT22;5508;49.150;11.030;2023-02-28T20:30:15;-3.70;96.10
10911;DHT22;5508;49.150;11.030;2023-02-28T20:33:16;-3.60;95.20
10911;DHT22;5508;49.150;11.030;2023-02-28T20:36:18;-3.70;93.80
10911;DHT22;5508;49.150;11.030;2023-02-28T20:39:22;-3.60;94.20
10911;DHT22;5508;49.150;11.030;2023-02-28T20:42:23;-3.60;93.90
10911;DHT22;5508;49.150;11.030;2023-02-28T20:45:24;-3.70;94.90
10911;DHT22;5508;49.150;11.030;2023-02-28T20:48:24;-3.70;95.20
10911;DHT22;5508;49.150;11.030;2023-02-28T20:51:25;-3.80;95.50
10911;DHT22;5508;49.150;11.030;2023-02-28T20:54:25;-3.70;95.00
10911;DHT22;5508;49.150;11.030;2023-02-28T20:57:28;-3.70;95.20